sensor_id;sensor_type;location;lat;lon;timestamp;temperature;humidity
39777;DHT22;25453;48.162;14.510;2022-10-23T00:01:43;12.20;81.70
39777;DHT22;25453;48.162;14.510;2022-10-23T00:04:22;12.20;81.60
39777;DHT22;25453;48.162;14.510;2022-10-23T00:06:51;12.20;81.60
39777;DHT22;25453;48.162;14.510;2022-10-23T00:09:25;12.20;81.50
39777;DHT22;25453;48.162;14.510;2022-10-23T00:11:52;12.20;81.70
39777;DHT22;25453;48.162;14.510;2022-10-23T00:14:28;12.20;81.70
39777;DHT22;25453;48.162;14.510;2022-10-23T00:16:56;12.20;81.80
39777;DHT22;25453;48.162;14.510;2022-10-23T00:19:29;12.20;82.10
39777;DHT22;25453;48.162;14.510;2022-10-23T00:21:57;12.30;82.30
39777;DHT22;25453;48.162;14.510;2022-10-23T00:24:32;12.30;82.40
39777;DHT22;25453;48.162;14.510;2022-10-23T00:26:59;12.40;82.30
39777;DHT22;25453;48.162;14.510;2022-10-23T00:29:39;12.30;82.10
39777;DHT22;25453;48.162;14.510;2022-10-23T00:32:20;12.30;82.10
39777;DHT22;25453;48.162;14.510;2022-10-23T00:34:54;12.30;82.20
39777;DHT22;25453;48.162;14.510;2022-10-23T00:37:21;12.30;82.20
39777;DHT22;25453;48.162;14.510;2022-10-23T00:39:55;12.30;82.20
39777;DHT22;25453;48.162;14.510;2022-10-23T00:42:22;12.30;82.20
39777;DHT22;25453;48.162;14.510;2022-10-23T00:45:32;12.20;82.20
39777;DHT22;25453;48.162;14.510;2022-10-23T00:48:02;12.20;82.40
39777;DHT22;25453;48.162;14.510;2022-10-23T00:50:36;12.20;82.40
39777;DHT22;25453;48.162;14.510;2022-10-23T00:53:05;12.20;82.30
39777;DHT22;25453;48.162;14.510;2022-10-23T00:55:41;12.20;82.40
39777;DHT22;25453;48.162;14.510;2022-10-23T00:58:18;12.20;82.60
39777;DHT22;25453;48.162;14.510;2022-10-23T01:00:54;12.20;82.60
39777;DHT22;25453;48.162;14.510;2022-10-23T01:03:26;12.20;82.60
39777;DHT22;25453;48.162;14.510;2022-10-23T01:06:12;12.20;82.60
39777;DHT22;25453;48.162;14.510;2022-10-23T01:11:41;12.20;82.70
39777;DHT22;25453;48.162;14.510;2022-10-23T01:14:39;12.20;82.60
39777;DHT22;25453;48.162;14.510;2022-10-23T01:17:22;12.20;82.60
39777;DHT22;25453;48.162;14.510;2022-10-23T01:25:34;12.10;82.40
39777;DHT22;25453;48.162;14.510;2022-10-23T01:28:47;12.10;82.60
39777;DHT22;25453;48.162;14.510;2022-10-23T01:31:47;12.10;83.00
39777;DHT22;25453;48.162;14.510;2022-10-23T01:34:28;12.10;83.00
39777;DHT22;25453;48.162;14.510;2022-10-23T01:36:56;12.20;82.90
39777;DHT22;25453;48.162;14.510;2022-10-23T01:39:37;12.20;82.80
39777;DHT22;25453;48.162;14.510;2022-10-23T01:42:07;12.20;82.90
39777;DHT22;25453;48.162;14.510;2022-10-23T01:44:48;12.30;82.90
39777;DHT22;25453;48.162;14.510;2022-10-23T01:47:19;12.30;82.90
39777;DHT22;25453;48.162;14.510;2022-10-23T01:49:55;12.30;82.80
39777;DHT22;25453;48.162;14.510;2022-10-23T01:52:24;12.30;82.80
39777;DHT22;25453;48.162;14.510;2022-10-23T01:55:00;12.30;82.80
39777;DHT22;25453;48.162;14.510;2022-10-23T01:57:30;12.30;82.70
39777;DHT22;25453;48.162;14.510;2022-10-23T02:00:09;12.30;82.70
39777;DHT22;25453;48.162;14.510;2022-10-23T02:02:46;12.30;82.70
39777;DHT22;25453;48.162;14.510;2022-10-23T02:05:26;12.30;82.70
39777;DHT22;25453;48.162;14.510;2022-10-23T02:07:55;12.30;82.70
39777;DHT22;25453;48.162;14.510;2022-10-23T02:10:53;12.30;82.70
39777;DHT22;25453;48.162;14.510;2022-10-23T02:13:45;12.30;82.80
39777;DHT22;25453;48.162;14.510;2022-10-23T02:19:23;12.30;82.90
39777;DHT22;25453;48.162;14.510;2022-10-23T02:24:54;12.30;83.00
39777;DHT22;25453;48.162;14.510;2022-10-23T02:27:41;12.30;83.00
39777;DHT22;25453;48.162;14.510;2022-10-23T02:30:18;12.20;83.00
39777;DHT22;25453;48.162;14.510;2022-10-23T02:32:54;12.20;83.10
39777;DHT22;25453;48.162;14.510;2022-10-23T02:35:27;12.20;83.20
39777;DHT22;25453;48.162;14.510;2022-10-23T02:38:02;12.30;83.20
39777;DHT22;25453;48.162;14.510;2022-10-23T02:40:39;12.30;83.10
39777;DHT22;25453;48.162;14.510;2022-10-23T02:43:20;12.20;83.10
39777;DHT22;25453;48.162;14.510;2022-10-23T02:46:32;12.20;83.00
39777;DHT22;25453;48.162;14.510;2022-10-23T02:49:09;12.20;83.10
39777;DHT22;25453;48.162;14.510;2022-10-23T02:51:56;12.20;83.20
39777;DHT22;25453;48.162;14.510;2022-10-23T03:02:44;12.10;83.50
39777;DHT22;25453;48.162;14.510;2022-10-23T03:05:22;12.10;83.60
39777;DHT22;25453;48.162;14.510;2022-10-23T03:07:51;12.10;83.60
39777;DHT22;25453;48.162;14.510;2022-10-23T03:10:25;12.10;83.60
39777;DHT22;25453;48.162;14.510;2022-10-23T03:12:52;12.10;83.70
39777;DHT22;25453;48.162;14.510;2022-10-23T03:15:26;12.10;83.70
39777;DHT22;25453;48.162;14.510;2022-10-23T03:17:53;12.10;83.60
39777;DHT22;25453;48.162;14.510;2022-10-23T03:20:28;12.10;83.70
39777;DHT22;25453;48.162;14.510;2022-10-23T03:23:02;12.10;83.60
39777;DHT22;25453;48.162;14.510;2022-10-23T03:25:36;12.20;83.60
39777;DHT22;25453;48.162;14.510;2022-10-23T03:28:03;12.20;83.50
39777;DHT22;25453;48.162;14.510;2022-10-23T03:30:37;12.20;83.40
39777;DHT22;25453;48.162;14.510;2022-10-23T03:33:17;12.10;83.30
39777;DHT22;25453;48.162;14.510;2022-10-23T03:35:47;12.10;83.30
39777;DHT22;25453;48.162;14.510;2022-10-23T03:38:22;12.00;83.40
39777;DHT22;25453;48.162;14.510;2022-10-23T03:40:49;12.00;83.20
39777;DHT22;25453;48.162;14.510;2022-10-23T03:43:23;11.90;83.50
39777;DHT22;25453;48.162;14.510;2022-10-23T03:45:50;11.90;83.60
39777;DHT22;25453;48.162;14.510;2022-10-23T03:48:25;12.00;83.60
39777;DHT22;25453;48.162;14.510;2022-10-23T03:50:52;12.00;83.50
39777;DHT22;25453;48.162;14.510;2022-10-23T03:53:26;12.00;83.40
39777;DHT22;25453;48.162;14.510;2022-10-23T03:55:53;12.00;83.30
39777;DHT22;25453;48.162;14.510;2022-10-23T03:58:27;11.90;83.40
39777;DHT22;25453;48.162;14.510;2022-10-23T04:00:54;11.90;83.50
39777;DHT22;25453;48.162;14.510;2022-10-23T04:03:28;12.00;83.60
39777;DHT22;25453;48.162;14.510;2022-10-23T04:06:02;12.00;83.50
39777;DHT22;25453;48.162;14.510;2022-10-23T04:08:37;12.00;83.40
39777;DHT22;25453;48.162;14.510;2022-10-23T04:11:04;12.00;83.50
39777;DHT22;25453;48.162;14.510;2022-10-23T04:13:38;12.00;83.50
39777;DHT22;25453;48.162;14.510;2022-10-23T04:16:12;12.10;83.50
39777;DHT22;25453;48.162;14.510;2022-10-23T04:18:40;12.10;83.50
39777;DHT22;25453;48.162;14.510;2022-10-23T04:21:14;12.10;83.50
39777;DHT22;25453;48.162;14.510;2022-10-23T04:23:48;12.10;83.50
39777;DHT22;25453;48.162;14.510;2022-10-23T04:26:15;12.10;83.70
39777;DHT22;25453;48.162;14.510;2022-10-23T04:28:42;12.10;83.60
39777;DHT22;25453;48.162;14.510;2022-10-23T04:31:17;12.10;83.60
39777;DHT22;25453;48.162;14.510;2022-10-23T04:34:05;12.10;83.50
39777;DHT22;25453;48.162;14.510;2022-10-23T04:36:33;12.10;83.50
39777;DHT22;25453;48.162;14.510;2022-10-23T04:39:07;12.10;83.50
39777;DHT22;25453;48.162;14.510;2022-10-23T04:41:41;12.10;83.60
39777;DHT22;25453;48.162;14.510;2022-10-23T04:44:08;12.10;83.60
39777;DHT22;25453;48.162;14.510;2022-10-23T04:46:42;12.20;83.70
39777;DHT22;25453;48.162;14.510;2022-10-23T04:49:16;12.20;83.80
39777;DHT22;25453;48.162;14.510;2022-10-23T04:51:43;12.20;83.60
39777;DHT22;25453;48.162;14.510;2022-10-23T04:54:17;12.20;83.20
39777;DHT22;25453;48.162;14.510;2022-10-23T04:56:44;12.20;83.00
39777;DHT22;25453;48.162;14.510;2022-10-23T04:59:18;12.10;83.10
39777;DHT22;25453;48.162;14.510;2022-10-23T05:01:52;12.10;83.00
39777;DHT22;25453;48.162;14.510;2022-10-23T05:04:19;12.00;83.10
39777;DHT22;25453;48.162;14.510;2022-10-23T05:06:53;12.00;83.20
39777;DHT22;25453;48.162;14.510;2022-10-23T05:09:20;11.90;83.20
39777;DHT22;25453;48.162;14.510;2022-10-23T05:11:55;11.90;83.10
39777;DHT22;25453;48.162;14.510;2022-10-23T05:14:22;11.80;83.20
39777;DHT22;25453;48.162;14.510;2022-10-23T05:17:02;11.80;83.20
39777;DHT22;25453;48.162;14.510;2022-10-23T05:19:42;11.80;83.40
39777;DHT22;25453;48.162;14.510;2022-10-23T05:22:12;11.80;83.40
39777;DHT22;25453;48.162;14.510;2022-10-23T05:24:48;11.80;83.40
39777;DHT22;25453;48.162;14.510;2022-10-23T05:27:22;11.80;83.50
39777;DHT22;25453;48.162;14.510;2022-10-23T05:29:56;11.80;83.50
39777;DHT22;25453;48.162;14.510;2022-10-23T05:32:31;11.90;83.40
39777;DHT22;25453;48.162;14.510;2022-10-23T05:35:18;11.90;83.60
39777;DHT22;25453;48.162;14.510;2022-10-23T05:37:47;11.90;83.30
39777;DHT22;25453;48.162;14.510;2022-10-23T05:40:22;11.90;83.30
39777;DHT22;25453;48.162;14.510;2022-10-23T05:42:50;11.90;83.30
39777;DHT22;25453;48.162;14.510;2022-10-23T05:45:24;11.90;83.30
39777;DHT22;25453;48.162;14.510;2022-10-23T05:47:58;11.90;83.10
39777;DHT22;25453;48.162;14.510;2022-10-23T05:50:42;11.90;83.10
39777;DHT22;25453;48.162;14.510;2022-10-23T05:53:17;11.90;83.20
39777;DHT22;25453;48.162;14.510;2022-10-23T05:55:51;11.90;83.10
39777;DHT22;25453;48.162;14.510;2022-10-23T05:58:18;11.80;83.00
39777;DHT22;25453;48.162;14.510;2022-10-23T06:00:52;11.80;82.90
39777;DHT22;25453;48.162;14.510;2022-10-23T06:03:26;11.80;82.90
39777;DHT22;25453;48.162;14.510;2022-10-23T06:05:53;11.80;82.90
39777;DHT22;25453;48.162;14.510;2022-10-23T06:08:27;11.80;83.00
39777;DHT22;25453;48.162;14.510;2022-10-23T06:10:55;11.80;82.90
39777;DHT22;25453;48.162;14.510;2022-10-23T06:13:29;11.80;82.90
39777;DHT22;25453;48.162;14.510;2022-10-23T06:15:56;11.80;82.80
39777;DHT22;25453;48.162;14.510;2022-10-23T06:18:35;11.80;82.70
39777;DHT22;25453;48.162;14.510;2022-10-23T06:21:09;11.70;82.70
39777;DHT22;25453;48.162;14.510;2022-10-23T06:23:38;11.70;82.70
39777;DHT22;25453;48.162;14.510;2022-10-23T06:26:12;11.70;82.70
39777;DHT22;25453;48.162;14.510;2022-10-23T06:28:50;11.70;82.80
39777;DHT22;25453;48.162;14.510;2022-10-23T06:31:31;11.70;82.80
39777;DHT22;25453;48.162;14.510;2022-10-23T06:34:05;11.80;82.90
39777;DHT22;25453;48.162;14.510;2022-10-23T06:36:46;11.80;82.80
39777;DHT22;25453;48.162;14.510;2022-10-23T06:39:13;11.80;82.60
39777;DHT22;25453;48.162;14.510;2022-10-23T06:41:47;11.70;82.60
39777;DHT22;25453;48.162;14.510;2022-10-23T06:44:14;11.70;82.70
39777;DHT22;25453;48.162;14.510;2022-10-23T06:46:48;11.70;82.70
39777;DHT22;25453;48.162;14.510;2022-10-23T06:49:16;11.70;82.80
39777;DHT22;25453;48.162;14.510;2022-10-23T06:51:50;11.70;82.70
39777;DHT22;25453;48.162;14.510;2022-10-23T06:54:17;11.70;83.00
39777;DHT22;25453;48.162;14.510;2022-10-23T06:56:52;11.80;83.10
39777;DHT22;25453;48.162;14.510;2022-10-23T06:59:26;11.80;83.10
39777;DHT22;25453;48.162;14.510;2022-10-23T07:01:53;11.90;83.10
39777;DHT22;25453;48.162;14.510;2022-10-23T07:04:28;12.00;82.90
39777;DHT22;25453;48.162;14.510;2022-10-23T07:07:02;12.00;82.60
39777;DHT22;25453;48.162;14.510;2022-10-23T07:09:30;12.00;82.50
39777;DHT22;25453;48.162;14.510;2022-10-23T07:12:04;12.00;82.40
39777;DHT22;25453;48.162;14.510;2022-10-23T07:14:31;12.00;82.40
39777;DHT22;25453;48.162;14.510;2022-10-23T07:17:05;12.00;82.40
39777;DHT22;25453;48.162;14.510;2022-10-23T07:19:32;12.00;82.30
39777;DHT22;25453;48.162;14.510;2022-10-23T07:22:06;12.00;82.20
39777;DHT22;25453;48.162;14.510;2022-10-23T07:24:37;12.00;82.10
39777;DHT22;25453;48.162;14.510;2022-10-23T07:27:13;11.90;82.00
39777;DHT22;25453;48.162;14.510;2022-10-23T07:29:40;11.80;82.30
39777;DHT22;25453;48.162;14.510;2022-10-23T07:32:21;11.80;82.60
39777;DHT22;25453;48.162;14.510;2022-10-23T07:34:50;11.80;82.70
39777;DHT22;25453;48.162;14.510;2022-10-23T07:37:24;11.90;82.50
39777;DHT22;25453;48.162;14.510;2022-10-23T07:39:51;11.90;82.60
39777;DHT22;25453;48.162;14.510;2022-10-23T07:42:18;11.90;82.50
39777;DHT22;25453;48.162;14.510;2022-10-23T07:44:52;12.00;82.30
39777;DHT22;25453;48.162;14.510;2022-10-23T07:47:26;11.90;82.40
39777;DHT22;25453;48.162;14.510;2022-10-23T07:49:54;12.00;82.60
39777;DHT22;25453;48.162;14.510;2022-10-23T07:52:28;12.00;82.90
39777;DHT22;25453;48.162;14.510;2022-10-23T07:55:00;12.10;82.90
39777;DHT22;25453;48.162;14.510;2022-10-23T07:57:37;12.10;82.50
39777;DHT22;25453;48.162;14.510;2022-10-23T08:00:12;12.10;82.30
39777;DHT22;25453;48.162;14.510;2022-10-23T08:02:39;12.10;82.50
39777;DHT22;25453;48.162;14.510;2022-10-23T08:05:13;12.10;82.50
39777;DHT22;25453;48.162;14.510;2022-10-23T08:07:40;12.10;82.70
39777;DHT22;25453;48.162;14.510;2022-10-23T08:10:16;12.20;83.00
39777;DHT22;25453;48.162;14.510;2022-10-23T08:12:43;12.30;83.00
39777;DHT22;25453;48.162;14.510;2022-10-23T08:15:17;12.30;82.90
39777;DHT22;25453;48.162;14.510;2022-10-23T08:17:44;12.40;82.70
39777;DHT22;25453;48.162;14.510;2022-10-23T08:20:12;12.40;82.70
39777;DHT22;25453;48.162;14.510;2022-10-23T08:22:46;12.40;82.70
39777;DHT22;25453;48.162;14.510;2022-10-23T08:25:13;12.40;82.50
39777;DHT22;25453;48.162;14.510;2022-10-23T08:27:51;12.40;82.60
39777;DHT22;25453;48.162;14.510;2022-10-23T08:30:18;12.40;82.70
39777;DHT22;25453;48.162;14.510;2022-10-23T08:32:53;12.50;82.90
39777;DHT22;25453;48.162;14.510;2022-10-23T08:35:27;12.50;82.90
39777;DHT22;25453;48.162;14.510;2022-10-23T08:38:01;12.60;82.60
39777;DHT22;25453;48.162;14.510;2022-10-23T08:40:28;12.60;82.50
39777;DHT22;25453;48.162;14.510;2022-10-23T08:43:11;12.60;82.40
39777;DHT22;25453;48.162;14.510;2022-10-23T08:48:44;12.50;82.60
39777;DHT22;25453;48.162;14.510;2022-10-23T08:51:23;12.60;82.90
39777;DHT22;25453;48.162;14.510;2022-10-23T08:56:34;12.70;82.90
39777;DHT22;25453;48.162;14.510;2022-10-23T08:59:26;12.70;82.80
39777;DHT22;25453;48.162;14.510;2022-10-23T09:04:41;12.90;83.30
39777;DHT22;25453;48.162;14.510;2022-10-23T09:12:58;13.00;83.00
39777;DHT22;25453;48.162;14.510;2022-10-23T09:15:41;13.00;83.10
39777;DHT22;25453;48.162;14.510;2022-10-23T09:18:16;13.10;83.10
39777;DHT22;25453;48.162;14.510;2022-10-23T09:20:45;13.10;83.10
39777;DHT22;25453;48.162;14.510;2022-10-23T09:23:21;13.20;83.10
39777;DHT22;25453;48.162;14.510;2022-10-23T09:25:51;13.20;82.90
39777;DHT22;25453;48.162;14.510;2022-10-23T09:28:41;13.20;82.90
39777;DHT22;25453;48.162;14.510;2022-10-23T09:31:22;13.20;82.90
39777;DHT22;25453;48.162;14.510;2022-10-23T09:33:58;13.30;82.80
39777;DHT22;25453;48.162;14.510;2022-10-23T09:36:57;13.30;82.70
39777;DHT22;25453;48.162;14.510;2022-10-23T09:42:22;13.30;82.80
39777;DHT22;25453;48.162;14.510;2022-10-23T09:44:57;13.40;82.80
39777;DHT22;25453;48.162;14.510;2022-10-23T09:47:31;13.40;82.90
39777;DHT22;25453;48.162;14.510;2022-10-23T09:50:19;13.40;83.10
39777;DHT22;25453;48.162;14.510;2022-10-23T09:52:53;13.50;83.30
39777;DHT22;25453;48.162;14.510;2022-10-23T09:55:28;13.60;83.20
39777;DHT22;25453;48.162;14.510;2022-10-23T09:57:55;13.60;83.10
39777;DHT22;25453;48.162;14.510;2022-10-23T10:00:29;13.70;83.10
39777;DHT22;25453;48.162;14.510;2022-10-23T10:03:16;13.70;83.00
39777;DHT22;25453;48.162;14.510;2022-10-23T10:05:55;13.80;83.20
39777;DHT22;25453;48.162;14.510;2022-10-23T10:08:50;13.90;83.10
39777;DHT22;25453;48.162;14.510;2022-10-23T10:34:31;14.80;81.30
39777;DHT22;25453;48.162;14.510;2022-10-23T10:42:39;14.80;81.20
39777;DHT22;25453;48.162;14.510;2022-10-23T10:45:18;14.80;81.40
39777;DHT22;25453;48.162;14.510;2022-10-23T10:48:17;14.90;81.60
39777;DHT22;25453;48.162;14.510;2022-10-23T10:51:01;15.00;81.90
39777;DHT22;25453;48.162;14.510;2022-10-23T10:53:51;15.20;82.20
39777;DHT22;25453;48.162;14.510;2022-10-23T10:56:23;15.50;82.10
39777;DHT22;25453;48.162;14.510;2022-10-23T10:59:09;15.70;82.00
39777;DHT22;25453;48.162;14.510;2022-10-23T11:04:50;16.10;81.20
39777;DHT22;25453;48.162;14.510;2022-10-23T11:07:32;16.40;80.70
39777;DHT22;25453;48.162;14.510;2022-10-23T11:10:03;16.60;80.30
39777;DHT22;25453;48.162;14.510;2022-10-23T11:12:46;16.80;79.90
39777;DHT22;25453;48.162;14.510;2022-10-23T11:15:17;17.00;79.30
39777;DHT22;25453;48.162;14.510;2022-10-23T11:18:02;17.10;78.90
39777;DHT22;25453;48.162;14.510;2022-10-23T11:26:53;17.50;77.50
39777;DHT22;25453;48.162;14.510;2022-10-23T11:38:27;17.60;76.70
39777;DHT22;25453;48.162;14.510;2022-10-23T11:41:20;17.70;76.50
39777;DHT22;25453;48.162;14.510;2022-10-23T11:44:00;17.70;76.20
39777;DHT22;25453;48.162;14.510;2022-10-23T11:46:37;17.70;76.00
39777;DHT22;25453;48.162;14.510;2022-10-23T11:49:19;17.70;75.90
39777;DHT22;25453;48.162;14.510;2022-10-23T11:52:04;17.70;76.20
39777;DHT22;25453;48.162;14.510;2022-10-23T11:54:32;17.70;76.30
39777;DHT22;25453;48.162;14.510;2022-10-23T12:02:36;18.10;76.50
39777;DHT22;25453;48.162;14.510;2022-10-23T12:08:22;18.40;76.40
39777;DHT22;25453;48.162;14.510;2022-10-23T12:10:51;18.50;76.20
39777;DHT22;25453;48.162;14.510;2022-10-23T12:13:44;18.60;76.00
39777;DHT22;25453;48.162;14.510;2022-10-23T12:16:12;18.70;75.90
39777;DHT22;25453;48.162;14.510;2022-10-23T12:18:50;18.80;75.50
39777;DHT22;25453;48.162;14.510;2022-10-23T12:21:26;18.80;75.40
39777;DHT22;25453;48.162;14.510;2022-10-23T12:27:12;18.90;75.20
39777;DHT22;25453;48.162;14.510;2022-10-23T12:29:52;18.80;75.20
39777;DHT22;25453;48.162;14.510;2022-10-23T12:38:12;18.80;75.30
39777;DHT22;25453;48.162;14.510;2022-10-23T12:43:53;18.70;75.40
39777;DHT22;25453;48.162;14.510;2022-10-23T12:46:40;18.70;75.50
39777;DHT22;25453;48.162;14.510;2022-10-23T12:49:22;18.70;75.40
39777;DHT22;25453;48.162;14.510;2022-10-23T12:52:00;18.60;75.40
39777;DHT22;25453;48.162;14.510;2022-10-23T12:54:37;18.60;75.60
39777;DHT22;25453;48.162;14.510;2022-10-23T12:57:24;18.60;75.60
39777;DHT22;25453;48.162;14.510;2022-10-23T13:00:07;18.60;75.70
39777;DHT22;25453;48.162;14.510;2022-10-23T13:02:38;18.60;75.90
39777;DHT22;25453;48.162;14.510;2022-10-23T13:05:17;18.60;75.80
39777;DHT22;25453;48.162;14.510;2022-10-23T13:07:47;18.60;75.70
39777;DHT22;25453;48.162;14.510;2022-10-23T13:10:22;18.50;75.60
39777;DHT22;25453;48.162;14.510;2022-10-23T13:13:05;18.50;75.50
39777;DHT22;25453;48.162;14.510;2022-10-23T13:15:39;18.40;75.40
39777;DHT22;25453;48.162;14.510;2022-10-23T13:18:14;18.30;75.40
39777;DHT22;25453;48.162;14.510;2022-10-23T13:20:54;18.20;75.30
39777;DHT22;25453;48.162;14.510;2022-10-23T13:26:05;18.10;75.50
39777;DHT22;25453;48.162;14.510;2022-10-23T13:28:43;18.00;75.60
39777;DHT22;25453;48.162;14.510;2022-10-23T13:31:31;17.90;75.80
39777;DHT22;25453;48.162;14.510;2022-10-23T13:36:36;17.90;76.30
39777;DHT22;25453;48.162;14.510;2022-10-23T13:41:44;18.00;76.40
39777;DHT22;25453;48.162;14.510;2022-10-23T13:44:21;17.90;76.20
39777;DHT22;25453;48.162;14.510;2022-10-23T13:46:50;17.90;76.10
39777;DHT22;25453;48.162;14.510;2022-10-23T13:49:25;17.90;76.00
39777;DHT22;25453;48.162;14.510;2022-10-23T13:51:54;17.80;76.00
39777;DHT22;25453;48.162;14.510;2022-10-23T13:54:29;17.80;76.10
39777;DHT22;25453;48.162;14.510;2022-10-23T13:56:56;17.80;76.00
39777;DHT22;25453;48.162;14.510;2022-10-23T13:59:30;17.80;75.80
39777;DHT22;25453;48.162;14.510;2022-10-23T14:01:57;17.70;75.80
39777;DHT22;25453;48.162;14.510;2022-10-23T14:04:31;17.80;75.60
39777;DHT22;25453;48.162;14.510;2022-10-23T14:06:58;17.80;75.20
39777;DHT22;25453;48.162;14.510;2022-10-23T14:09:32;17.70;75.10
39777;DHT22;25453;48.162;14.510;2022-10-23T14:11:59;17.70;74.70
39777;DHT22;25453;48.162;14.510;2022-10-23T14:14:33;17.70;74.60
39777;DHT22;25453;48.162;14.510;2022-10-23T14:17:07;17.60;74.40
39777;DHT22;25453;48.162;14.510;2022-10-23T14:19:34;17.60;74.20
39777;DHT22;25453;48.162;14.510;2022-10-23T14:22:08;17.50;74.00
39777;DHT22;25453;48.162;14.510;2022-10-23T14:24:35;17.50;74.10
39777;DHT22;25453;48.162;14.510;2022-10-23T14:27:09;17.40;73.80
39777;DHT22;25453;48.162;14.510;2022-10-23T14:29:39;17.40;73.90
39777;DHT22;25453;48.162;14.510;2022-10-23T14:32:18;17.40;74.10
39777;DHT22;25453;48.162;14.510;2022-10-23T14:34:59;17.30;74.10
39777;DHT22;25453;48.162;14.510;2022-10-23T14:37:36;17.30;74.10
39777;DHT22;25453;48.162;14.510;2022-10-23T14:40:10;17.30;74.10
39777;DHT22;25453;48.162;14.510;2022-10-23T14:42:45;17.30;74.20
39777;DHT22;25453;48.162;14.510;2022-10-23T14:45:12;17.20;74.30
39777;DHT22;25453;48.162;14.510;2022-10-23T14:47:46;17.20;74.30
39777;DHT22;25453;48.162;14.510;2022-10-23T14:50:14;17.20;74.40
39777;DHT22;25453;48.162;14.510;2022-10-23T14:52:48;17.20;74.50
39777;DHT22;25453;48.162;14.510;2022-10-23T14:55:15;17.20;74.40
39777;DHT22;25453;48.162;14.510;2022-10-23T14:57:53;17.20;74.40
39777;DHT22;25453;48.162;14.510;2022-10-23T15:00:22;17.20;74.40
39777;DHT22;25453;48.162;14.510;2022-10-23T15:02:56;17.10;74.40
39777;DHT22;25453;48.162;14.510;2022-10-23T15:05:23;17.10;74.40
39777;DHT22;25453;48.162;14.510;2022-10-23T15:07:57;17.10;74.50
39777;DHT22;25453;48.162;14.510;2022-10-23T15:10:25;17.00;74.50
39777;DHT22;25453;48.162;14.510;2022-10-23T15:12:59;17.00;74.50
39777;DHT22;25453;48.162;14.510;2022-10-23T15:15:33;16.90;74.60
39777;DHT22;25453;48.162;14.510;2022-10-23T15:18:07;16.90;74.70
39777;DHT22;25453;48.162;14.510;2022-10-23T15:20:34;16.80;74.80
39777;DHT22;25453;48.162;14.510;2022-10-23T15:23:08;16.80;74.90
39777;DHT22;25453;48.162;14.510;2022-10-23T15:25:35;16.70;75.00
39777;DHT22;25453;48.162;14.510;2022-10-23T15:28:09;16.70;75.10
39777;DHT22;25453;48.162;14.510;2022-10-23T15:30:36;16.70;75.20
39777;DHT22;25453;48.162;14.510;2022-10-23T15:33:16;16.60;75.30
39777;DHT22;25453;48.162;14.510;2022-10-23T15:35:57;16.60;75.40
39777;DHT22;25453;48.162;14.510;2022-10-23T15:38:25;16.50;75.50
39777;DHT22;25453;48.162;14.510;2022-10-23T15:41:13;16.50;75.70
39777;DHT22;25453;48.162;14.510;2022-10-23T15:43:47;16.40;75.80
39777;DHT22;25453;48.162;14.510;2022-10-23T15:46:21;16.40;75.80
39777;DHT22;25453;48.162;14.510;2022-10-23T15:48:48;16.40;76.00
39777;DHT22;25453;48.162;14.510;2022-10-23T15:51:22;16.30;76.00
39777;DHT22;25453;48.162;14.510;2022-10-23T15:53:49;16.30;76.10
39777;DHT22;25453;48.162;14.510;2022-10-23T15:56:17;16.20;76.30
39777;DHT22;25453;48.162;14.510;2022-10-23T15:58:51;16.10;76.60
39777;DHT22;25453;48.162;14.510;2022-10-23T16:01:25;16.10;76.80
39777;DHT22;25453;48.162;14.510;2022-10-23T16:03:53;16.10;76.90
39777;DHT22;25453;48.162;14.510;2022-10-23T16:06:27;16.10;77.00
39777;DHT22;25453;48.162;14.510;2022-10-23T16:08:55;16.10;77.00
39777;DHT22;25453;48.162;14.510;2022-10-23T16:11:32;16.00;77.10
39777;DHT22;25453;48.162;14.510;2022-10-23T16:14:00;16.00;77.30
39777;DHT22;25453;48.162;14.510;2022-10-23T16:16:36;16.00;77.40
39777;DHT22;25453;48.162;14.510;2022-10-23T16:19:04;16.00;77.50
39777;DHT22;25453;48.162;14.510;2022-10-23T16:21:38;16.00;77.60
39777;DHT22;25453;48.162;14.510;2022-10-23T16:24:07;16.00;77.60
39777;DHT22;25453;48.162;14.510;2022-10-23T16:26:43;16.00;77.70
39777;DHT22;25453;48.162;14.510;2022-10-23T16:29:16;16.00;77.80
39777;DHT22;25453;48.162;14.510;2022-10-23T16:31:52;15.90;77.90
39777;DHT22;25453;48.162;14.510;2022-10-23T16:34:26;15.90;78.00
39777;DHT22;25453;48.162;14.510;2022-10-23T16:36:54;15.90;78.10
39777;DHT22;25453;48.162;14.510;2022-10-23T16:39:28;15.90;78.20
39777;DHT22;25453;48.162;14.510;2022-10-23T16:41:57;15.90;78.20
39777;DHT22;25453;48.162;14.510;2022-10-23T16:44:32;15.90;78.40
39777;DHT22;25453;48.162;14.510;2022-10-23T16:47:07;15.80;78.50
39777;DHT22;25453;48.162;14.510;2022-10-23T16:49:36;15.90;78.60
39777;DHT22;25453;48.162;14.510;2022-10-23T16:52:10;15.80;78.70
39777;DHT22;25453;48.162;14.510;2022-10-23T16:54:45;15.80;78.80
39777;DHT22;25453;48.162;14.510;2022-10-23T16:57:19;15.80;78.90
39777;DHT22;25453;48.162;14.510;2022-10-23T16:59:47;15.80;78.90
39777;DHT22;25453;48.162;14.510;2022-10-23T17:02:21;15.80;79.00
39777;DHT22;25453;48.162;14.510;2022-10-23T17:04:49;15.80;79.00
39777;DHT22;25453;48.162;14.510;2022-10-23T17:07:23;15.80;79.10
39777;DHT22;25453;48.162;14.510;2022-10-23T17:09:51;15.80;79.20
39777;DHT22;25453;48.162;14.510;2022-10-23T17:12:25;15.70;79.30
39777;DHT22;25453;48.162;14.510;2022-10-23T17:14:52;15.70;79.30
39777;DHT22;25453;48.162;14.510;2022-10-23T17:17:27;15.70;79.40
39777;DHT22;25453;48.162;14.510;2022-10-23T17:19:54;15.60;79.40
39777;DHT22;25453;48.162;14.510;2022-10-23T17:22:28;15.60;79.50
39777;DHT22;25453;48.162;14.510;2022-10-23T17:25:02;15.60;79.50
39777;DHT22;25453;48.162;14.510;2022-10-23T17:27:29;15.50;79.60
39777;DHT22;25453;48.162;14.510;2022-10-23T17:30:05;15.50;79.60
39777;DHT22;25453;48.162;14.510;2022-10-23T17:32:47;15.50;79.70
39777;DHT22;25453;48.162;14.510;2022-10-23T17:35:29;15.50;79.70
39777;DHT22;25453;48.162;14.510;2022-10-23T17:38:03;15.50;79.60
39777;DHT22;25453;48.162;14.510;2022-10-23T17:40:31;15.50;79.70
39777;DHT22;25453;48.162;14.510;2022-10-23T17:43:07;15.40;79.60
39777;DHT22;25453;48.162;14.510;2022-10-23T17:45:34;15.40;79.70
39777;DHT22;25453;48.162;14.510;2022-10-23T17:48:10;15.40;79.70
39777;DHT22;25453;48.162;14.510;2022-10-23T17:50:38;15.30;79.70
39777;DHT22;25453;48.162;14.510;2022-10-23T17:53:12;15.30;79.90
39777;DHT22;25453;48.162;14.510;2022-10-23T17:55:39;15.30;79.90